Time;durP1;ratioP1;P1;durP2;ratioP2;P2;SDS_P1;SDS_P2;PMS_P1;PMS_P2;Temp;Humidity;BMP_temperature;BMP_pressure;BME280_temperature;BME280_humidity;BME280_pressure;Samples;Min_cycle;Max_cycle;Signal;HPM_P1;HPM_P2
2023/05/30 00:00:51;;;;;;;;;;;;;;;;;;5064963;28;19913;-47
2023/05/30 05:10:34;;;;;;;;;;;;;;;;;;5066174;28;19923;-47
2023/05/30 05:13:00;;;;;;;;;;;;;;;;;;5068660;28;19912;-48
2023/05/30 05:15:26;;;;;;;;;;;;;;;;;;5067270;28;20005;-48
2023/05/30 05:17:53;;;;;;;;;;;;;;;;;;5067189;28;19917;-49
2023/05/30 05:20:19;;;;;;;;;;;;;;;;;;5068055;28;19947;-45
2023/05/30 05:22:46;;;;;;;;;;;;;;;;;;5067926;28;19912;-49
2023/05/30 05:25:11;;;;;;;;;;;;;;;;;;5067990;28;19971;-49
2023/05/30 05:27:37;;;;;;;;;;;;;;;;;;5068419;28;19940;-46
2023/05/30 05:30:03;;;;;;;;;;;;;;;;;;5068150;28;20290;-48
2023/05/30 05:32:29;;;;;;;;;;;;;;;;;;5067080;28;19912;-49
2023/05/30 05:34:55;;;;;;;;;;;;;;;;;;5064802;28;20002;-47
2023/05/30 05:37:22;;;;;;;;;;;;;;;;;;5066269;28;19909;-48
2023/05/30 05:39:48;;;;;;;;;;;;;;;;;;5069453;28;19908;-46
2023/05/30 05:42:14;;;;;;;;;;;;;;;;;;5069855;28;19909;-50
2023/05/30 05:44:40;;;;;;;;;;;;;;;;;;5069287;28;19912;-48
2023/05/30 05:47:06;;;;;;;;;;;;;;;;;;5054705;28;19941;-49
2023/05/30 05:49:32;;;;;;;;;;;;;;;;;;5050322;28;19916;-50
2023/05/30 05:51:57;;;;;;;;;;;;;;;;;;5065098;28;19916;-45
2023/05/30 05:54:23;;;;;;;;;;;;;;;;;;5049495;28;20011;-50
2023/05/30 05:56:49;;;;;;;;;;;;;;;;;;5049931;28;19921;-48
2023/05/30 05:59:15;;;;;;;;;;;;;;;;;;5052920;28;19948;-49
2023/05/30 06:01:42;;;;;;;;;;;;;;;;;;5060910;28;19916;-49
2023/05/30 06:04:08;;;;;;;;;;;;;;;;;;5055416;28;19917;-50
2023/05/30 06:06:34;;;;;;;;;;;;;;;;;;5069159;28;20010;-48
2023/05/30 06:09:00;;;;;;;;;;;;;;;;;;5064017;28;19969;-49
2023/05/30 06:11:26;;;;;;;;;;;;;;;;;;5069278;28;20442;-49
2023/05/30 06:13:52;;;;;;;;;;;;;;;;;;5067890;28;19961;-46
2023/05/30 06:16:18;;;;;;;;;;;;;;;;;;5063948;28;20121;-46
2023/05/30 06:18:44;;;;;;;;;;;;;;;;;;5065545;28;19970;-49
2023/05/30 06:21:11;;;;;;;;;;;;;;;;;;5055508;28;19927;-46
2023/05/30 06:23:37;;;;;;;;;;;;;;;;;;5064924;28;20011;-49
2023/05/30 06:26:03;;;;;;;;;;;;;;;;;;5049192;28;20067;-49
2023/05/30 06:28:29;;;;;;;;;;;;;;;;;;5048726;28;19913;-49
2023/05/30 06:30:55;;;;;;;;;;;;;;;;;;5053203;28;19912;-49
2023/05/30 06:33:22;;;;;;;;;;;;;;;;;;5068663;28;19909;-51
2023/05/30 06:35:48;;;;;;;;;;;;;;;;;;5068887;28;19913;-47
2023/05/30 06:38:16;;;;;;;;;;;;;;;;;;5070864;28;19915;-48
2023/05/30 06:40:42;;;;;;;;;;;;;;;;;;5070019;28;19918;-49
2023/05/30 06:43:08;;;;;;;;;;;;;;;;;;5067608;28;19912;-50
2023/05/30 06:45:34;;;;;;;;;;;;;;;;;;5067662;28;19912;-49
2023/05/30 06:48:01;;;;;;;;;;;;;;;;;;5065132;28;19912;-48
2023/05/30 06:50:27;;;;;;;;;;;;;;;;;;5052765;28;19912;-50
2023/05/30 06:52:53;;;;;;;;;;;;;;;;;;5069289;28;19919;-50
2023/05/30 06:55:19;;;;;;;;;;;;;;;;;;5069091;28;19913;-48
2023/05/30 06:57:44;;;;;;;;;;;;;;;;;;5055598;28;19908;-47
2023/05/30 07:00:10;;;;;;;;;;;;;;;;;;5049303;28;20027;-50
2023/05/30 07:02:36;;;;;;;;;;;;;;;;;;5056574;28;19912;-48
2023/05/30 07:05:02;;;;;;;;;;;;;;;;;;5069338;28;19913;-49
2023/05/30 07:07:28;;;;;;;;;;;;;;;;;;5069446;28;19965;-47
2023/05/30 07:09:54;;;;;;;;;;;;;;;;;;5062497;28;20011;-47
2023/05/30 07:12:20;;;;;;;;;;;;;;;;;;5069239;28;19912;-46
2023/05/30 07:14:46;;;;;;;;;;;;;;;;;;5058765;28;19928;-49
2023/05/30 07:17:12;;;;;;;;;;;;;;;;;;5054235;28;19919;-47
2023/05/30 07:19:38;;;;;;;;;;;;;;;;;;5074889;28;19952;-47
2023/05/30 07:22:05;;;;;;;;;;;;;;;;;;5080579;28;19935;-46
2023/05/30 07:24:32;;;;;;;;;;;;;;;;;;5070321;28;19920;-47
2023/05/30 07:26:57;;;;;;;;;;;;;;;;;;5065116;28;20403;-45
2023/05/30 07:29:24;;;;;;;;;;;;;;;;;;5058483;28;19951;-47
2023/05/30 07:31:49;;;;;;;;;;;;;;;;;;5050100;28;20371;-47
2023/05/30 07:34:15;;;;;;;;;;;;;;;;;;5068591;28;20197;-46
2023/05/30 07:36:41;;;;;;;;;;;;;;;;;;5069769;28;19936;-46
2023/05/30 07:39:08;;;;;;;;;;;;;;;;;;5069705;28;19919;-46
2023/05/30 07:41:34;;;;;;;;;;;;;;;;;;5069913;28;19913;-47
2023/05/30 07:44:00;;;;;;;;;;;;;;;;;;5069665;28;19919;-46
2023/05/30 07:46:27;;;;;;;;;;;;;;;;;;5068440;28;19953;-46
2023/05/30 07:48:53;;;;;;;;;;;;;;;;;;5064780;28;19919;-47
2023/05/30 07:51:20;;;;;;;;;;;;;;;;;;5070742;28;19908;-47
2023/05/30 07:53:46;;;;;;;;;;;;;;;;;;5069218;28;19966;-47
2023/05/30 07:56:12;;;;;;;;;;;;;;;;;;5070663;28;19908;-46
2023/05/30 07:58:38;;;;;;;;;;;;;;;;;;5070634;28;19913;-47
2023/05/30 08:01:04;;;;;;;;;;;;;;;;;;5055441;28;20007;-47
2023/05/30 08:03:29;;;;;;;;;;;;;;;;;;5050919;28;19909;-47
2023/05/30 08:05:55;;;;;;;;;;;;;;;;;;5051372;28;19956;-50
2023/05/30 08:08:21;;;;;;;;;;;;;;;;;;5069422;28;19941;-47
2023/05/30 08:10:47;;;;;;;;;;;;;;;;;;5070448;28;20344;-46
2023/05/30 08:13:14;;;;;;;;;;;;;;;;;;5070009;28;20391;-48
2023/05/30 08:15:40;;;;;;;;;;;;;;;;;;5070685;28;19909;-48
2023/05/30 08:18:08;;;;;;;;;;;;;;;;;;5066912;28;19919;-47
2023/05/30 08:20:35;;;;;;;;;;;;;;;;;;5069821;28;19916;-48
2023/05/30 08:23:01;;;;;;;;;;;;;;;;;;5070014;28;19924;-48
2023/05/30 08:25:32;;;;;;;;;;;;;;;;;;5067704;28;19912;-50
2023/05/30 08:27:59;;;;;;;;;;;;;;;;;;5070177;28;19920;-51
2023/05/30 08:30:25;;;;;;;;;;;;;;;;;;5069837;28;20391;-52
2023/05/30 08:32:51;;;;;;;;;;;;;;;;;;5080395;28;19958;-47
2023/05/30 08:35:16;;;;;;;;;;;;;;;;;;5090427;28;20359;-50
2023/05/30 08:37:42;;;;;;;;;;;;;;;;;;5069877;28;19908;-48
2023/05/30 08:40:08;;;;;;;;;;;;;;;;;;5069601;28;19974;-47
2023/05/30 08:42:34;;;;;;;;;;;;;;;;;;5069444;28;19981;-48
2023/05/30 08:45:00;;;;;;;;;;;;;;;;;;5069683;28;19995;-48
2023/05/30 08:47:26;;;;;;;;;;;;;;;;;;5068909;28;19974;-48
2023/05/30 08:49:52;;;;;;;;;;;;;;;;;;5069311;28;19912;-50
2023/05/30 08:52:18;;;;;;;;;;;;;;;;;;5069321;28;20309;-48
2023/05/30 08:54:45;;;;;;;;;;;;;;;;;;5069654;28;20018;-49
2023/05/30 08:57:12;;;;;;;;;;;;;;;;;;5068843;28;20007;-47
2023/05/30 08:59:40;;;;;;;;;;;;;;;;;;5068970;28;20412;-47
2023/05/30 09:02:06;;;;;;;;;;;;;;;;;;5069314;28;19908;-47
2023/05/30 09:04:32;;;;;;;;;;;;;;;;;;5078460;28;19999;-48
2023/05/30 09:06:58;;;;;;;;;;;;;;;;;;5080510;28;19974;-47
2023/05/30 09:09:24;;;;;;;;;;;;;;;;;;5075493;28;19919;-48
2023/05/30 09:11:50;;;;;;;;;;;;;;;;;;5081494;28;19992;-46
2023/05/30 09:14:16;;;;;;;;;;;;;;;;;;5068765;28;20004;-48
2023/05/30 09:16:42;;;;;;;;;;;;;;;;;;5068772;28;20015;-50
2023/05/30 09:19:08;;;;;;;;;;;;;;;;;;5069072;28;19915;-49
2023/05/30 09:21:35;;;;;;;;;;;;;;;;;;5072746;28;19990;-47
2023/05/30 09:24:01;;;;;;;;;;;;;;;;;;5066487;28;19913;-47
2023/05/30 09:26:27;;;;;;;;;;;;;;;;;;5065440;28;19920;-49
2023/05/30 09:28:53;;;;;;;;;;;;;;;;;;5068739;28;19986;-45
2023/05/30 09:31:21;;;;;;;;;;;;;;;;;;5068023;28;20014;-47
2023/05/30 09:33:47;;;;;;;;;;;;;;;;;;5068817;28;20016;-49
2023/05/30 09:36:15;;;;;;;;;;;;;;;;;;5065275;28;20007;-46
2023/05/30 09:38:41;;;;;;;;;;;;;;;;;;5053896;28;20387;-47
2023/05/30 09:41:08;;;;;;;;;;;;;;;;;;5048466;28;19909;-50
2023/05/30 09:43:34;;;;;;;;;;;;;;;;;;5068184;28;19962;-47
2023/05/30 09:46:00;;;;;;;;;;;;;;;;;;5066144;28;20371;-45
2023/05/30 09:48:26;;;;;;;;;;;;;;;;;;5065502;28;19917;-46
2023/05/30 09:50:53;;;;;;;;;;;;;;;;;;5066221;28;19924;-46
2023/05/30 09:53:20;;;;;;;;;;;;;;;;;;5067248;28;19920;-46
2023/05/30 09:55:46;;;;;;;;;;;;;;;;;;5066048;28;19957;-48
2023/05/30 09:58:12;;;;;;;;;;;;;;;;;;5065359;28;19912;-46
2023/05/30 10:00:37;;;;;;;;;;;;;;;;;;5067765;28;19908;-46
2023/05/30 10:03:04;;;;;;;;;;;;;;;;;;5067304;28;19913;-46
2023/05/30 10:05:30;;;;;;;;;;;;;;;;;;5067358;28;20387;-49
2023/05/30 10:07:57;;;;;;;;;;;;;;;;;;5066415;28;19913;-46
2023/05/30 10:10:24;;;;;;;;;;;;;;;;;;5067025;28;19971;-44
2023/05/30 10:12:50;;;;;;;;;;;;;;;;;;5065927;28;19916;-44
2023/05/30 10:15:16;;;;;;;;;;;;;;;;;;5066778;28;19945;-48
2023/05/30 10:17:41;;;;;;;;;;;;;;;;;;5066237;28;19994;-45
2023/05/30 10:20:07;;;;;;;;;;;;;;;;;;5064936;28;19970;-47
2023/05/30 10:22:38;;;;;;;;;;;;;;;;;;5067064;28;19978;-46
2023/05/30 10:25:04;;;;;;;;;;;;;;;;;;5067653;28;19913;-49
2023/05/30 10:27:30;;;;;;;;;;;;;;;;;;5066779;28;19917;-46
2023/05/30 10:29:56;;;;;;;;;;;;;;;;;;5066778;28;20355;-46
2023/05/30 10:32:22;;;;;;;;;;;;;;;;;;5060027;28;19913;-48
2023/05/30 10:34:48;;;;;;;;;;;;;;;;;;5050433;28;19924;-48
2023/05/30 10:37:14;;;;;;;;;;;;;;;;;;5047793;28;19931;-46
2023/05/30 10:39:40;;;;;;;;;;;;;;;;;;5047842;28;19940;-49
2023/05/30 10:42:06;;;;;;;;;;;;;;;;;;5065508;28;19913;-48
2023/05/30 10:44:32;;;;;;;;;;;;;;;;;;5066676;28;19913;-46
2023/05/30 10:46:58;;;;;;;;;;;;;;;;;;5070181;28;20590;-46
2023/05/30 10:49:24;;;;;;;;;;;;;;;;;;5067710;28;19913;-46
2023/05/30 10:51:50;;;;;;;;;;;;;;;;;;5065486;28;19951;-48
2023/05/30 10:54:16;;;;;;;;;;;;;;;;;;5065712;28;20006;-46
2023/05/30 10:56:41;;;;;;;;;;;;;;;;;;5085087;28;19943;-38
2023/05/30 10:59:07;;;;;;;;;;;;;;;;;;5092728;28;19942;-38
2023/05/30 11:01:33;;;;;;;;;;;;;;;;;;5070282;28;19908;-38
2023/05/30 11:03:59;;;;;;;;;;;;;;;;;;5069672;28;19912;-38
2023/05/30 11:06:25;;;;;;;;;;;;;;;;;;5060216;28;19932;-38
2023/05/30 11:08:51;;;;;;;;;;;;;;;;;;5070896;28;19944;-38
2023/05/30 11:11:17;;;;;;;;;;;;;;;;;;5051545;28;19954;-38
2023/05/30 11:13:43;;;;;;;;;;;;;;;;;;5051600;28;19970;-38
2023/05/30 11:16:09;;;;;;;;;;;;;;;;;;5054585;28;19919;-38
2023/05/30 11:18:35;;;;;;;;;;;;;;;;;;5058463;28;19912;-38
2023/05/30 11:21:01;;;;;;;;;;;;;;;;;;5064266;28;19916;-38
2023/05/30 11:23:29;;;;;;;;;;;;;;;;;;5067886;28;19916;-38
2023/05/30 11:25:55;;;;;;;;;;;;;;;;;;5066127;28;19916;-38
2023/05/30 11:28:22;;;;;;;;;;;;;;;;;;5072711;28;20375;-46
2023/05/30 11:30:48;;;;;;;;;;;;;;;;;;5081975;28;19908;-46
2023/05/30 11:33:14;;;;;;;;;;;;;;;;;;5058233;28;19909;-38
2023/05/30 11:35:41;;;;;;;;;;;;;;;;;;5070781;28;20280;-38
2023/05/30 11:38:07;;;;;;;;;;;;;;;;;;5071019;28;19920;-38
2023/05/30 11:40:33;;;;;;;;;;;;;;;;;;5061294;28;20447;-38
2023/05/30 11:42:59;;;;;;;;;;;;;;;;;;5062574;28;19930;-38
2023/05/30 11:45:25;;;;;;;;;;;;;;;;;;5071216;28;19913;-38
2023/05/30 11:47:51;;;;;;;;;;;;;;;;;;5070819;28;19979;-39
2023/05/30 11:50:17;;;;;;;;;;;;;;;;;;5070325;28;20311;-38
2023/05/30 11:52:43;;;;;;;;;;;;;;;;;;5060259;28;19913;-38
2023/05/30 11:55:09;;;;;;;;;;;;;;;;;;5063618;28;19999;-37
2023/05/30 11:57:35;;;;;;;;;;;;;;;;;;5060597;28;19916;-37
2023/05/30 12:00:01;;;;;;;;;;;;;;;;;;5070596;28;20295;-37
2023/05/30 12:02:27;;;;;;;;;;;;;;;;;;5068889;28;19913;-37
2023/05/30 12:04:53;;;;;;;;;;;;;;;;;;5057271;28;19913;-37
2023/05/30 12:07:19;;;;;;;;;;;;;;;;;;5051915;28;19912;-37
2023/05/30 12:09:45;;;;;;;;;;;;;;;;;;5069386;28;19930;-38
2023/05/30 12:12:11;;;;;;;;;;;;;;;;;;5068735;28;19969;-38
2023/05/30 12:14:37;;;;;;;;;;;;;;;;;;5068881;28;19924;-39
2023/05/30 12:17:03;;;;;;;;;;;;;;;;;;5066592;28;19916;-38
2023/05/30 12:19:29;;;;;;;;;;;;;;;;;;5070855;28;19966;-38
2023/05/30 12:21:55;;;;;;;;;;;;;;;;;;5066745;28;19912;-38
2023/05/30 12:24:21;;;;;;;;;;;;;;;;;;5059955;28;19912;-38
2023/05/30 12:26:48;;;;;;;;;;;;;;;;;;5068298;28;19944;-38
2023/05/30 12:29:14;;;;;;;;;;;;;;;;;;5069355;28;19912;-38
2023/05/30 12:31:40;;;;;;;;;;;;;;;;;;5068582;28;20304;-38
2023/05/30 12:34:06;;;;;;;;;;;;;;;;;;5067786;28;19916;-38
2023/05/30 12:36:33;;;;;;;;;;;;;;;;;;5067738;28;20381;-38
2023/05/30 12:38:58;;;;;;;;;;;;;;;;;;5067450;28;20452;-38
2023/05/30 12:41:24;;;;;;;;;;;;;;;;;;5067701;28;19909;-38
2023/05/30 12:43:50;;;;;;;;;;;;;;;;;;5068209;28;19917;-38
2023/05/30 12:46:16;;;;;;;;;;;;;;;;;;5067694;28;19916;-38
2023/05/30 12:48:42;;;;;;;;;;;;;;;;;;5067543;28;20373;-38
2023/05/30 12:51:08;;;;;;;;;;;;;;;;;;5067395;28;20375;-38
2023/05/30 12:53:34;;;;;;;;;;;;;;;;;;5067170;28;19916;-38
2023/05/30 12:56:00;;;;;;;;;;;;;;;;;;5067349;28;19921;-38
2023/05/30 12:58:26;;;;;;;;;;;;;;;;;;5067439;28;20383;-38
2023/05/30 13:00:51;;;;;;;;;;;;;;;;;;5067391;28;19912;-38
2023/05/30 13:03:17;;;;;;;;;;;;;;;;;;5066895;28;20262;-38
2023/05/30 13:05:47;;;;;;;;;;;;;;;;;;5067517;28;19909;-38
2023/05/30 13:08:13;;;;;;;;;;;;;;;;;;5066326;28;19909;-38
2023/05/30 13:10:39;;;;;;;;;;;;;;;;;;5065761;28;19924;-38
2023/05/30 13:13:06;;;;;;;;;;;;;;;;;;5066869;28;19909;-38
2023/05/30 13:15:32;;;;;;;;;;;;;;;;;;5066994;28;19916;-38
2023/05/30 13:17:58;;;;;;;;;;;;;;;;;;5067040;28;19912;-38
2023/05/30 13:20:24;;;;;;;;;;;;;;;;;;5067093;28;19909;-38
2023/05/30 13:22:49;;;;;;;;;;;;;;;;;;5067386;28;19916;-38
2023/05/30 13:25:15;;;;;;;;;;;;;;;;;;5066370;28;19965;-38
2023/05/30 13:27:43;;;;;;;;;;;;;;;;;;5066631;28;20367;-38
2023/05/30 13:30:10;;;;;;;;;;;;;;;;;;5066461;28;19943;-38
2023/05/30 13:32:36;;;;;;;;;;;;;;;;;;5067016;28;19939;-38
2023/05/30 13:35:01;;;;;;;;;;;;;;;;;;5048455;28;19919;-38
2023/05/30 13:37:28;;;;;;;;;;;;;;;;;;5066464;28;19965;-38
2023/05/30 13:39:54;;;;;;;;;;;;;;;;;;5066159;28;19962;-38
2023/05/30 13:42:21;;;;;;;;;;;;;;;;;;5067659;28;19998;-38
2023/05/30 13:44:47;;;;;;;;;;;;;;;;;;5066596;28;20667;-38
2023/05/30 13:47:13;;;;;;;;;;;;;;;;;;5066307;28;20012;-38
2023/05/30 13:49:39;;;;;;;;;;;;;;;;;;5066026;28;19909;-38
2023/05/30 13:52:05;;;;;;;;;;;;;;;;;;5066228;28;19908;-38
2023/05/30 13:54:31;;;;;;;;;;;;;;;;;;5066120;28;20390;-38
2023/05/30 13:56:57;;;;;;;;;;;;;;;;;;5066211;28;20481;-38
2023/05/30 13:59:24;;;;;;;;;;;;;;;;;;5066664;28;20003;-38
2023/05/30 14:01:50;;;;;;;;;;;;;;;;;;5066809;28;20363;-39
2023/05/30 14:04:16;;;;;;;;;;;;;;;;;;5065038;28;19948;-39
2023/05/30 14:06:42;;;;;;;;;;;;;;;;;;5057064;28;19995;-38
2023/05/30 14:09:08;;;;;;;;;;;;;;;;;;5062078;28;19916;-39
2023/05/30 14:11:35;;;;;;;;;;;;;;;;;;5065940;28;19912;-39
2023/05/30 14:14:01;;;;;;;;;;;;;;;;;;5067427;28;19922;-39
2023/05/30 14:16:29;;;;;;;;;;;;;;;;;;5066733;28;19909;-38
2023/05/30 14:18:55;;;;;;;;;;;;;;;;;;5072723;28;19912;-39
2023/05/30 14:21:21;;;;;;;;;;;;;;;;;;5062893;28;19927;-38
2023/05/30 14:23:46;;;;;;;;;;;;;;;;;;5067127;28;19920;-39
2023/05/30 14:26:12;;;;;;;;;;;;;;;;;;5065627;28;19954;-39
2023/05/30 14:28:40;;;;;;;;;;;;;;;;;;5052434;28;19984;-39
2023/05/30 14:31:06;;;;;;;;;;;;;;;;;;5064019;28;19958;-39
2023/05/30 14:33:32;;;;;;;;;;;;;;;;;;5045513;28;19954;-38
2023/05/30 14:35:58;;;;;;;;;;;;;;;;;;5067102;28;20114;-39
2023/05/30 14:38:24;;;;;;;;;;;;;;;;;;5059410;28;19915;-39
2023/05/30 14:40:50;;;;;;;;;;;;;;;;;;5066276;28;19920;-38
2023/05/30 14:43:16;;;;;;;;;;;;;;;;;;5067077;28;20583;-39
2023/05/30 14:45:42;;;;;;;;;;;;;;;;;;5066957;28;19967;-39
2023/05/30 14:48:08;;;;;;;;;;;;;;;;;;5066132;28;19913;-39
2023/05/30 14:50:34;;;;;;;;;;;;;;;;;;5065422;28;19912;-39
2023/05/30 14:53:00;;;;;;;;;;;;;;;;;;5066588;28;20057;-39
2023/05/30 14:55:26;;;;;;;;;;;;;;;;;;5066210;28;19924;-39
2023/05/30 14:57:52;;;;;;;;;;;;;;;;;;5056438;28;19943;-39
2023/05/30 15:00:18;;;;;;;;;;;;;;;;;;5056502;28;19908;-39
2023/05/30 15:02:44;;;;;;;;;;;;;;;;;;5074527;28;19923;-46
2023/05/30 15:05:10;;;;;;;;;;;;;;;;;;5066868;28;19999;-45
2023/05/30 15:07:37;;;;;;;;;;;;;;;;;;5066892;28;19913;-46
2023/05/30 15:10:03;;;;;;;;;;;;;;;;;;5065773;28;19917;-49
2023/05/30 15:12:30;;;;;;;;;;;;;;;;;;5048697;28;19912;-48
2023/05/30 15:14:56;;;;;;;;;;;;;;;;;;5066765;28;19912;-47
2023/05/30 15:17:22;;;;;;;;;;;;;;;;;;5067181;28;20390;-47
2023/05/30 15:19:48;;;;;;;;;;;;;;;;;;5064737;28;19916;-49
2023/05/30 15:22:15;;;;;;;;;;;;;;;;;;5047231;28;19913;-41
2023/05/30 15:24:41;;;;;;;;;;;;;;;;;;5046531;28;19909;-40
2023/05/30 15:27:07;;;;;;;;;;;;;;;;;;5069175;28;19916;-39
2023/05/30 15:29:33;;;;;;;;;;;;;;;;;;5057473;28;19931;-39
2023/05/30 15:32:01;;;;;;;;;;;;;;;;;;5046489;28;19909;-39
2023/05/30 15:34:27;;;;;;;;;;;;;;;;;;5059553;28;20022;-39
2023/05/30 15:36:53;;;;;;;;;;;;;;;;;;5066979;28;20423;-48
2023/05/30 15:39:19;;;;;;;;;;;;;;;;;;5053179;28;20007;-47
2023/05/30 15:41:46;;;;;;;;;;;;;;;;;;5066298;28;20003;-47
2023/05/30 15:44:13;;;;;;;;;;;;;;;;;;5065935;28;19916;-46
2023/05/30 15:46:39;;;;;;;;;;;;;;;;;;5066908;28;20394;-39
2023/05/30 15:49:06;;;;;;;;;;;;;;;;;;5059188;28;19913;-39
2023/05/30 15:51:32;;;;;;;;;;;;;;;;;;5065466;28;19998;-39
2023/05/30 15:53:58;;;;;;;;;;;;;;;;;;5065108;28;19920;-39
2023/05/30 15:56:24;;;;;;;;;;;;;;;;;;5068963;28;20015;-39
2023/05/30 15:58:50;;;;;;;;;;;;;;;;;;5056165;28;19913;-39
2023/05/30 16:01:16;;;;;;;;;;;;;;;;;;5035454;28;19966;-39
2023/05/30 16:03:43;;;;;;;;;;;;;;;;;;5035147;28;20374;-42
2023/05/30 16:06:09;;;;;;;;;;;;;;;;;;5028460;28;19922;-41
2023/05/30 16:08:35;;;;;;;;;;;;;;;;;;5046297;28;19913;-47
2023/05/30 16:11:01;;;;;;;;;;;;;;;;;;5064369;28;19931;-47
2023/05/30 16:13:27;;;;;;;;;;;;;;;;;;5066646;28;19921;-41
2023/05/30 16:15:53;;;;;;;;;;;;;;;;;;5066808;28;19956;-41
2023/05/30 16:18:19;;;;;;;;;;;;;;;;;;5066832;28;19985;-49
2023/05/30 16:20:45;;;;;;;;;;;;;;;;;;5053736;28;20458;-48
2023/05/30 16:23:11;;;;;;;;;;;;;;;;;;5046284;28;20070;-50
2023/05/30 16:25:37;;;;;;;;;;;;;;;;;;5055371;28;20038;-49
2023/05/30 16:28:03;;;;;;;;;;;;;;;;;;5064613;28;20302;-50
2023/05/30 16:30:29;;;;;;;;;;;;;;;;;;5027908;28;19919;-47
2023/05/30 16:32:55;;;;;;;;;;;;;;;;;;5053272;28;20527;-48
2023/05/30 16:35:23;;;;;;;;;;;;;;;;;;5066618;28;20261;-49
2023/05/30 16:37:50;;;;;;;;;;;;;;;;;;5063323;28;19973;-40
2023/05/30 16:40:17;;;;;;;;;;;;;;;;;;5066030;28;20375;-40
2023/05/30 16:42:44;;;;;;;;;;;;;;;;;;5054128;28;19913;-40
2023/05/30 16:45:10;;;;;;;;;;;;;;;;;;5045925;28;20425;-40
2023/05/30 16:47:36;;;;;;;;;;;;;;;;;;5051381;28;19909;-40
2023/05/30 16:50:01;;;;;;;;;;;;;;;;;;5065696;28;19912;-40
2023/05/30 16:52:28;;;;;;;;;;;;;;;;;;5065746;28;19912;-40
2023/05/30 16:54:54;;;;;;;;;;;;;;;;;;5066430;28;19966;-40
2023/05/30 16:57:20;;;;;;;;;;;;;;;;;;5047656;28;19913;-41
2023/05/30 16:59:46;;;;;;;;;;;;;;;;;;5047825;28;19913;-40
2023/05/30 17:02:12;;;;;;;;;;;;;;;;;;5065461;28;19913;-41
2023/05/30 17:04:38;;;;;;;;;;;;;;;;;;5065691;28;19912;-40
2023/05/30 17:07:03;;;;;;;;;;;;;;;;;;5046509;28;19909;-40
2023/05/30 17:09:30;;;;;;;;;;;;;;;;;;5062577;28;20033;-40
2023/05/30 17:11:57;;;;;;;;;;;;;;;;;;5045027;28;20445;-47
2023/05/30 17:14:23;;;;;;;;;;;;;;;;;;5056197;28;20345;-50
2023/05/30 17:16:49;;;;;;;;;;;;;;;;;;5065829;28;20398;-40
2023/05/30 17:19:15;;;;;;;;;;;;;;;;;;5065047;28;19909;-40
2023/05/30 17:21:41;;;;;;;;;;;;;;;;;;5065268;28;19909;-40
2023/05/30 17:24:09;;;;;;;;;;;;;;;;;;5059980;28;20015;-49
2023/05/30 17:26:35;;;;;;;;;;;;;;;;;;5063466;28;20295;-48
2023/05/30 17:29:01;;;;;;;;;;;;;;;;;;5065167;28;20330;-48
2023/05/30 17:31:27;;;;;;;;;;;;;;;;;;5064865;28;19965;-47
2023/05/30 17:33:53;;;;;;;;;;;;;;;;;;5064596;28;19980;-46
2023/05/30 17:36:19;;;;;;;;;;;;;;;;;;5065156;28;20413;-47
2023/05/30 17:38:45;;;;;;;;;;;;;;;;;;5049866;28;19924;-48
2023/05/30 17:41:11;;;;;;;;;;;;;;;;;;5061175;28;20366;-48
2023/05/30 17:43:36;;;;;;;;;;;;;;;;;;5057954;28;19908;-49
2023/05/30 17:46:02;;;;;;;;;;;;;;;;;;5060252;28;20572;-49
2023/05/30 17:48:29;;;;;;;;;;;;;;;;;;5048100;28;19919;-46
2023/05/30 17:50:55;;;;;;;;;;;;;;;;;;5061223;28;19912;-50
2023/05/30 17:53:21;;;;;;;;;;;;;;;;;;5064521;28;19969;-47
2023/05/30 17:55:47;;;;;;;;;;;;;;;;;;5066216;28;19924;-49
2023/05/30 17:58:13;;;;;;;;;;;;;;;;;;5067025;28;19919;-46
2023/05/30 18:00:45;;;;;;;;;;;;;;;;;;5066634;28;20287;-48
2023/05/30 18:03:11;;;;;;;;;;;;;;;;;;5050918;28;19913;-48
2023/05/30 18:05:37;;;;;;;;;;;;;;;;;;5061192;28;19931;-47
2023/05/30 18:08:03;;;;;;;;;;;;;;;;;;5063537;28;20740;-47
2023/05/30 18:10:30;;;;;;;;;;;;;;;;;;5061990;28;20449;-46
2023/05/30 18:12:56;;;;;;;;;;;;;;;;;;5060779;28;19927;-45
2023/05/30 18:15:22;;;;;;;;;;;;;;;;;;5057575;28;19920;-46
2023/05/30 18:17:49;;;;;;;;;;;;;;;;;;5053122;28;19924;-48
2023/05/30 18:20:15;;;;;;;;;;;;;;;;;;5057487;28;19924;-48
2023/05/30 18:22:41;;;;;;;;;;;;;;;;;;5051470;28;20324;-48
2023/05/30 18:25:08;;;;;;;;;;;;;;;;;;5061732;28;20113;-48
2023/05/30 18:27:33;;;;;;;;;;;;;;;;;;5031372;28;20447;-47
2023/05/30 18:30:00;;;;;;;;;;;;;;;;;;5059667;28;20046;-47
2023/05/30 18:32:26;;;;;;;;;;;;;;;;;;5041667;28;19916;-48
2023/05/30 18:34:51;;;;;;;;;;;;;;;;;;5062281;28;19916;-47
2023/05/30 18:37:17;;;;;;;;;;;;;;;;;;5027793;28;19916;-49
2023/05/30 18:39:43;;;;;;;;;;;;;;;;;;5059097;28;19917;-46
2023/05/30 18:42:09;;;;;;;;;;;;;;;;;;5064084;28;19917;-48
2023/05/30 18:44:35;;;;;;;;;;;;;;;;;;5044108;28;20384;-48
2023/05/30 18:47:02;;;;;;;;;;;;;;;;;;5045493;28;20408;-47
2023/05/30 18:49:28;;;;;;;;;;;;;;;;;;5062560;28;20319;-48
2023/05/30 18:51:54;;;;;;;;;;;;;;;;;;5056718;28;19912;-47
2023/05/30 18:54:20;;;;;;;;;;;;;;;;;;5058184;28;19920;-48
2023/05/30 18:56:46;;;;;;;;;;;;;;;;;;5058858;28;20308;-46
2023/05/30 18:59:14;;;;;;;;;;;;;;;;;;5061766;28;20309;-47
2023/05/30 19:01:40;;;;;;;;;;;;;;;;;;5055479;28;20307;-49
2023/05/30 19:04:08;;;;;;;;;;;;;;;;;;5054408;28;19913;-47
2023/05/30 19:06:35;;;;;;;;;;;;;;;;;;5046633;28;20129;-48
2023/05/30 19:09:01;;;;;;;;;;;;;;;;;;5061007;28;20229;-47
2023/05/30 19:11:27;;;;;;;;;;;;;;;;;;5066442;28;19999;-48
2023/05/30 19:13:53;;;;;;;;;;;;;;;;;;5066900;28;20310;-47
2023/05/30 19:16:19;;;;;;;;;;;;;;;;;;5064684;28;19912;-49
2023/05/30 19:18:46;;;;;;;;;;;;;;;;;;5053775;28;19920;-47
2023/05/30 19:21:12;;;;;;;;;;;;;;;;;;5066678;28;19959;-46
2023/05/30 19:23:38;;;;;;;;;;;;;;;;;;5066362;28;19951;-47
2023/05/30 19:26:04;;;;;;;;;;;;;;;;;;5065203;28;20454;-46
2023/05/30 19:28:36;;;;;;;;;;;;;;;;;;5042150;28;19916;-46
2023/05/30 19:31:02;;;;;;;;;;;;;;;;;;5066799;28;19912;-46
2023/05/30 19:33:28;;;;;;;;;;;;;;;;;;5062416;28;19923;-46
2023/05/30 19:35:54;;;;;;;;;;;;;;;;;;5066115;28;19942;-48
2023/05/30 19:38:20;;;;;;;;;;;;;;;;;;5061720;28;19920;-47
2023/05/30 19:40:46;;;;;;;;;;;;;;;;;;5047723;28;20603;-46
2023/05/30 19:43:12;;;;;;;;;;;;;;;;;;5059796;28;19999;-47
2023/05/30 19:45:39;;;;;;;;;;;;;;;;;;5044146;28;19924;-47
2023/05/30 19:48:06;;;;;;;;;;;;;;;;;;5048811;28;19919;-50
2023/05/30 19:50:33;;;;;;;;;;;;;;;;;;5067439;28;19908;-46
2023/05/30 19:52:59;;;;;;;;;;;;;;;;;;5066000;28;20481;-47
2023/05/30 19:55:25;;;;;;;;;;;;;;;;;;5062971;28;19944;-46
2023/05/30 19:57:51;;;;;;;;;;;;;;;;;;5063504;28;19912;-47
2023/05/30 20:00:17;;;;;;;;;;;;;;;;;;5064192;28;19913;-46
2023/05/30 20:02:43;;;;;;;;;;;;;;;;;;5066292;28;19908;-46
2023/05/30 20:05:10;;;;;;;;;;;;;;;;;;5064544;28;19922;-47
2023/05/30 20:07:37;;;;;;;;;;;;;;;;;;5036034;28;20460;-46
2023/05/30 20:10:03;;;;;;;;;;;;;;;;;;5046632;28;19921;-46
2023/05/30 20:12:29;;;;;;;;;;;;;;;;;;5053718;28;20335;-47
2023/05/30 20:14:55;;;;;;;;;;;;;;;;;;5066062;28;19919;-48
2023/05/30 20:17:21;;;;;;;;;;;;;;;;;;5065688;28;19912;-49
2023/05/30 20:19:48;;;;;;;;;;;;;;;;;;5064279;28;20256;-46
2023/05/30 20:22:14;;;;;;;;;;;;;;;;;;5065967;28;20258;-47
2023/05/30 20:24:41;;;;;;;;;;;;;;;;;;5063751;28;19921;-46
2023/05/30 20:27:07;;;;;;;;;;;;;;;;;;5038445;28;20387;-46
2023/05/30 20:29:34;;;;;;;;;;;;;;;;;;5047788;28;19948;-46
2023/05/30 20:32:00;;;;;;;;;;;;;;;;;;5065790;28;20004;-47
2023/05/30 20:34:26;;;;;;;;;;;;;;;;;;5065371;28;19920;-47
2023/05/30 20:36:52;;;;;;;;;;;;;;;;;;5065048;28;19974;-47
2023/05/30 20:39:18;;;;;;;;;;;;;;;;;;5063724;28;19912;-47
2023/05/30 20:41:45;;;;;;;;;;;;;;;;;;5060569;28;19917;-45
2023/05/30 20:44:11;;;;;;;;;;;;;;;;;;5046529;28;20376;-46
2023/05/30 20:46:37;;;;;;;;;;;;;;;;;;5046831;28;19909;-45
2023/05/30 20:49:02;;;;;;;;;;;;;;;;;;5055531;28;19932;-46
2023/05/30 20:51:28;;;;;;;;;;;;;;;;;;5065269;28;20416;-47
2023/05/30 20:53:54;;;;;;;;;;;;;;;;;;5065986;28;19912;-46
2023/05/30 20:56:22;;;;;;;;;;;;;;;;;;5065116;28;19916;-48
2023/05/30 20:58:49;;;;;;;;;;;;;;;;;;5065567;28;19954;-46
2023/05/30 21:01:15;;;;;;;;;;;;;;;;;;5065406;28;20022;-47
2023/05/30 21:03:41;;;;;;;;;;;;;;;;;;5065538;28;19916;-46
2023/05/30 21:06:06;;;;;;;;;;;;;;;;;;5063116;28;19919;-47
2023/05/30 21:08:33;;;;;;;;;;;;;;;;;;5065483;28;19947;-46
2023/05/30 21:11:00;;;;;;;;;;;;;;;;;;5064699;28;20009;-47
2023/05/30 21:13:26;;;;;;;;;;;;;;;;;;5053616;28;20260;-47
2023/05/30 21:15:52;;;;;;;;;;;;;;;;;;5046417;28;19913;-46
2023/05/30 21:18:18;;;;;;;;;;;;;;;;;;5047972;28;19916;-47
2023/05/30 21:20:44;;;;;;;;;;;;;;;;;;5065023;28;19912;-47
2023/05/30 21:23:10;;;;;;;;;;;;;;;;;;5064204;28;20399;-47
2023/05/30 21:25:39;;;;;;;;;;;;;;;;;;5065912;28;19909;-47
2023/05/30 21:28:05;;;;;;;;;;;;;;;;;;5064794;28;19920;-47
2023/05/30 21:30:31;;;;;;;;;;;;;;;;;;5064826;28;19908;-47
2023/05/30 21:32:57;;;;;;;;;;;;;;;;;;5045776;28;19912;-49
2023/05/30 21:35:23;;;;;;;;;;;;;;;;;;5065777;28;19919;-48
2023/05/30 21:37:49;;;;;;;;;;;;;;;;;;5065285;28;19947;-47
2023/05/30 21:40:16;;;;;;;;;;;;;;;;;;5065327;28;19999;-46
2023/05/30 21:42:42;;;;;;;;;;;;;;;;;;5065311;28;19915;-47
2023/05/30 21:45:09;;;;;;;;;;;;;;;;;;5065324;28;20395;-48